馬祖北竿航空站 - ATIS

METAR RCMT 140200Z 16006KT 130V190 9999 FEW007 SCT012 30/24 Q1009 NOSIG RMK A2982(R)=

站台狀態:Online
最後更新:2022-08-14 10:30:01